sensor_id;sensor_type;location;lat;lon;timestamp;P1;durP1;ratioP1;P2;durP2;ratioP2
64029;SDS011;50277;52.064;4.492;2023-11-18T00:01:43;15.00;;;8.48;;
64029;SDS011;50277;52.064;4.492;2023-11-18T00:04:09;14.30;;;9.00;;
64029;SDS011;50277;52.064;4.492;2023-11-18T00:06:40;12.88;;;8.35;;
64029;SDS011;50277;52.064;4.492;2023-11-18T00:09:09;11.82;;;9.02;;
64029;SDS011;50277;52.064;4.492;2023-11-18T00:11:39;13.75;;;8.95;;
64029;SDS011;50277;52.064;4.492;2023-11-18T00:14:05;15.45;;;8.65;;
64029;SDS011;50277;52.064;4.492;2023-11-18T00:16:31;13.57;;;8.85;;
64029;SDS011;50277;52.064;4.492;2023-11-18T00:18:57;10.90;;;7.72;;
64029;SDS011;50277;52.064;4.492;2023-11-18T00:21:24;20.67;;;10.00;;
64029;SDS011;50277;52.064;4.492;2023-11-18T00:23:49;16.58;;;9.07;;
64029;SDS011;50277;52.064;4.492;2023-11-18T00:26:14;14.60;;;9.13;;
64029;SDS011;50277;52.064;4.492;2023-11-18T00:28:40;15.07;;;9.20;;
64029;SDS011;50277;52.064;4.492;2023-11-18T00:31:05;20.23;;;9.45;;
64029;SDS011;50277;52.064;4.492;2023-11-18T00:33:31;13.77;;;9.18;;
64029;SDS011;50277;52.064;4.492;2023-11-18T00:35:57;15.93;;;8.93;;
64029;SDS011;50277;52.064;4.492;2023-11-18T00:38:22;12.93;;;9.00;;
64029;SDS011;50277;52.064;4.492;2023-11-18T00:40:47;17.17;;;11.07;;
64029;SDS011;50277;52.064;4.492;2023-11-18T00:43:13;14.18;;;8.80;;
64029;SDS011;50277;52.064;4.492;2023-11-18T00:45:38;18.90;;;9.60;;
64029;SDS011;50277;52.064;4.492;2023-11-18T00:48:04;17.05;;;9.75;;
64029;SDS011;50277;52.064;4.492;2023-11-18T00:50:30;13.98;;;8.82;;
64029;SDS011;50277;52.064;4.492;2023-11-18T00:52:56;15.88;;;9.70;;
64029;SDS011;50277;52.064;4.492;2023-11-18T00:55:21;12.32;;;8.40;;
64029;SDS011;50277;52.064;4.492;2023-11-18T00:57:47;15.38;;;9.73;;
64029;SDS011;50277;52.064;4.492;2023-11-18T01:00:13;16.25;;;10.70;;
64029;SDS011;50277;52.064;4.492;2023-11-18T01:02:39;22.00;;;10.30;;
64029;SDS011;50277;52.064;4.492;2023-11-18T01:05:05;18.27;;;10.20;;
64029;SDS011;50277;52.064;4.492;2023-11-18T01:07:32;18.83;;;10.35;;
64029;SDS011;50277;52.064;4.492;2023-11-18T01:09:57;14.10;;;9.95;;
64029;SDS011;50277;52.064;4.492;2023-11-18T01:12:22;17.23;;;9.45;;
64029;SDS011;50277;52.064;4.492;2023-11-18T01:14:48;19.45;;;10.70;;
64029;SDS011;50277;52.064;4.492;2023-11-18T01:17:13;22.67;;;11.13;;
64029;SDS011;50277;52.064;4.492;2023-11-18T01:19:38;13.50;;;9.82;;
64029;SDS011;50277;52.064;4.492;2023-11-18T01:22:04;17.02;;;9.73;;
64029;SDS011;50277;52.064;4.492;2023-11-18T01:24:33;15.85;;;9.82;;
64029;SDS011;50277;52.064;4.492;2023-11-18T01:26:58;14.18;;;10.32;;
64029;SDS011;50277;52.064;4.492;2023-11-18T01:29:24;17.15;;;10.73;;
64029;SDS011;50277;52.064;4.492;2023-11-18T01:31:50;16.13;;;9.75;;
64029;SDS011;50277;52.064;4.492;2023-11-18T01:34:15;14.95;;;10.20;;
64029;SDS011;50277;52.064;4.492;2023-11-18T01:36:42;16.05;;;9.18;;
64029;SDS011;50277;52.064;4.492;2023-11-18T01:39:08;17.48;;;10.15;;
64029;SDS011;50277;52.064;4.492;2023-11-18T01:41:34;14.82;;;9.18;;
64029;SDS011;50277;52.064;4.492;2023-11-18T01:43:59;22.65;;;9.85;;
64029;SDS011;50277;52.064;4.492;2023-11-18T01:46:24;14.38;;;10.02;;
64029;SDS011;50277;52.064;4.492;2023-11-18T01:48:50;15.13;;;9.38;;
64029;SDS011;50277;52.064;4.492;2023-11-18T01:51:16;15.90;;;9.63;;
64029;SDS011;50277;52.064;4.492;2023-11-18T01:53:44;17.48;;;9.45;;
64029;SDS011;50277;52.064;4.492;2023-11-18T01:56:12;20.07;;;9.17;;
64029;SDS011;50277;52.064;4.492;2023-11-18T01:58:37;18.50;;;9.13;;
64029;SDS011;50277;52.064;4.492;2023-11-18T02:01:03;15.48;;;8.52;;
64029;SDS011;50277;52.064;4.492;2023-11-18T02:03:33;15.68;;;8.70;;
64029;SDS011;50277;52.064;4.492;2023-11-18T02:05:59;21.13;;;8.30;;
64029;SDS011;50277;52.064;4.492;2023-11-18T02:08:25;20.13;;;9.38;;
64029;SDS011;50277;52.064;4.492;2023-11-18T02:10:55;19.58;;;9.10;;
64029;SDS011;50277;52.064;4.492;2023-11-18T02:13:37;16.90;;;9.80;;
64029;SDS011;50277;52.064;4.492;2023-11-18T02:16:04;17.27;;;9.50;;
64029;SDS011;50277;52.064;4.492;2023-11-18T02:18:32;13.07;;;8.77;;
64029;SDS011;50277;52.064;4.492;2023-11-18T02:20:58;17.75;;;9.38;;
64029;SDS011;50277;52.064;4.492;2023-11-18T02:23:27;18.13;;;9.40;;
64029;SDS011;50277;52.064;4.492;2023-11-18T02:25:53;19.63;;;9.00;;
64029;SDS011;50277;52.064;4.492;2023-11-18T02:28:19;19.55;;;9.82;;
64029;SDS011;50277;52.064;4.492;2023-11-18T02:30:44;19.30;;;9.75;;
64029;SDS011;50277;52.064;4.492;2023-11-18T02:33:22;16.45;;;9.88;;
64029;SDS011;50277;52.064;4.492;2023-11-18T02:35:56;20.08;;;9.27;;
64029;SDS011;50277;52.064;4.492;2023-11-18T02:38:29;23.48;;;9.88;;
64029;SDS011;50277;52.064;4.492;2023-11-18T02:40:57;15.38;;;9.52;;
64029;SDS011;50277;52.064;4.492;2023-11-18T02:43:24;14.95;;;8.75;;
64029;SDS011;50277;52.064;4.492;2023-11-18T02:45:49;20.45;;;9.82;;
64029;SDS011;50277;52.064;4.492;2023-11-18T02:48:16;17.08;;;8.70;;
64029;SDS011;50277;52.064;4.492;2023-11-18T02:50:43;13.25;;;8.23;;
64029;SDS011;50277;52.064;4.492;2023-11-18T02:53:08;16.08;;;8.30;;
64029;SDS011;50277;52.064;4.492;2023-11-18T02:55:34;12.85;;;7.95;;
64029;SDS011;50277;52.064;4.492;2023-11-18T02:58:00;14.93;;;8.23;;
64029;SDS011;50277;52.064;4.492;2023-11-18T03:00:27;13.45;;;8.23;;
64029;SDS011;50277;52.064;4.492;2023-11-18T03:02:53;16.15;;;8.02;;
64029;SDS011;50277;52.064;4.492;2023-11-18T03:05:19;11.05;;;7.50;;
64029;SDS011;50277;52.064;4.492;2023-11-18T03:07:45;17.65;;;8.27;;
64029;SDS011;50277;52.064;4.492;2023-11-18T03:10:18;16.23;;;7.40;;
64029;SDS011;50277;52.064;4.492;2023-11-18T03:12:47;17.20;;;7.38;;
64029;SDS011;50277;52.064;4.492;2023-11-18T03:15:14;15.07;;;6.90;;
64029;SDS011;50277;52.064;4.492;2023-11-18T03:17:41;11.85;;;6.55;;
64029;SDS011;50277;52.064;4.492;2023-11-18T03:20:09;16.00;;;8.80;;
64029;SDS011;50277;52.064;4.492;2023-11-18T03:22:35;16.33;;;8.10;;
64029;SDS011;50277;52.064;4.492;2023-11-18T03:25:01;12.15;;;7.75;;
64029;SDS011;50277;52.064;4.492;2023-11-18T03:27:26;17.10;;;7.80;;
64029;SDS011;50277;52.064;4.492;2023-11-18T03:29:51;15.20;;;9.15;;
64029;SDS011;50277;52.064;4.492;2023-11-18T03:32:17;18.65;;;8.15;;
64029;SDS011;50277;52.064;4.492;2023-11-18T03:34:42;15.65;;;7.75;;
64029;SDS011;50277;52.064;4.492;2023-11-18T03:37:08;13.63;;;8.25;;
64029;SDS011;50277;52.064;4.492;2023-11-18T03:39:34;16.70;;;7.60;;
64029;SDS011;50277;52.064;4.492;2023-11-18T03:42:00;16.15;;;7.97;;
64029;SDS011;50277;52.064;4.492;2023-11-18T03:44:25;14.93;;;8.10;;
64029;SDS011;50277;52.064;4.492;2023-11-18T03:46:50;14.30;;;8.55;;
64029;SDS011;50277;52.064;4.492;2023-11-18T03:49:16;14.88;;;7.57;;
64029;SDS011;50277;52.064;4.492;2023-11-18T03:51:41;15.25;;;7.13;;
64029;SDS011;50277;52.064;4.492;2023-11-18T03:54:06;15.60;;;7.68;;
64029;SDS011;50277;52.064;4.492;2023-11-18T03:56:33;17.15;;;7.28;;
64029;SDS011;50277;52.064;4.492;2023-11-18T03:58:59;15.88;;;7.38;;
64029;SDS011;50277;52.064;4.492;2023-11-18T04:01:25;14.25;;;7.43;;
64029;SDS011;50277;52.064;4.492;2023-11-18T04:03:52;11.90;;;7.63;;
64029;SDS011;50277;52.064;4.492;2023-11-18T04:06:18;18.20;;;7.95;;
64029;SDS011;50277;52.064;4.492;2023-11-18T04:08:46;15.10;;;8.18;;
64029;SDS011;50277;52.064;4.492;2023-11-18T04:11:12;16.15;;;7.68;;
64029;SDS011;50277;52.064;4.492;2023-11-18T04:13:39;25.73;;;7.40;;
64029;SDS011;50277;52.064;4.492;2023-11-18T04:16:04;14.27;;;7.80;;
64029;SDS011;50277;52.064;4.492;2023-11-18T04:18:31;19.50;;;8.02;;
64029;SDS011;50277;52.064;4.492;2023-11-18T04:20:56;17.65;;;7.82;;
64029;SDS011;50277;52.064;4.492;2023-11-18T04:23:23;18.00;;;8.35;;
64029;SDS011;50277;52.064;4.492;2023-11-18T04:25:48;13.18;;;8.10;;
64029;SDS011;50277;52.064;4.492;2023-11-18T04:28:14;12.48;;;8.00;;
64029;SDS011;50277;52.064;4.492;2023-11-18T04:30:40;14.35;;;8.52;;
64029;SDS011;50277;52.064;4.492;2023-11-18T04:33:05;12.93;;;8.48;;
64029;SDS011;50277;52.064;4.492;2023-11-18T04:35:30;15.70;;;8.52;;
64029;SDS011;50277;52.064;4.492;2023-11-18T04:37:56;20.30;;;8.63;;
64029;SDS011;50277;52.064;4.492;2023-11-18T04:40:22;19.85;;;9.07;;
64029;SDS011;50277;52.064;4.492;2023-11-18T04:42:48;15.88;;;8.90;;
64029;SDS011;50277;52.064;4.492;2023-11-18T04:45:13;13.15;;;8.50;;
64029;SDS011;50277;52.064;4.492;2023-11-18T04:47:39;13.02;;;8.23;;
64029;SDS011;50277;52.064;4.492;2023-11-18T04:50:06;17.95;;;8.80;;
64029;SDS011;50277;52.064;4.492;2023-11-18T04:52:33;18.25;;;9.10;;
64029;SDS011;50277;52.064;4.492;2023-11-18T04:54:59;17.25;;;8.45;;
64029;SDS011;50277;52.064;4.492;2023-11-18T04:57:25;18.10;;;10.23;;
64029;SDS011;50277;52.064;4.492;2023-11-18T04:59:50;14.27;;;8.20;;
64029;SDS011;50277;52.064;4.492;2023-11-18T05:02:15;16.05;;;8.35;;
64029;SDS011;50277;52.064;4.492;2023-11-18T05:04:40;17.90;;;8.60;;
64029;SDS011;50277;52.064;4.492;2023-11-18T05:07:06;17.20;;;8.70;;
64029;SDS011;50277;52.064;4.492;2023-11-18T05:09:31;17.95;;;8.88;;
64029;SDS011;50277;52.064;4.492;2023-11-18T05:11:57;12.65;;;8.15;;
64029;SDS011;50277;52.064;4.492;2023-11-18T05:14:23;22.25;;;9.38;;
64029;SDS011;50277;52.064;4.492;2023-11-18T05:16:48;18.17;;;8.57;;
64029;SDS011;50277;52.064;4.492;2023-11-18T05:19:14;21.30;;;8.55;;
64029;SDS011;50277;52.064;4.492;2023-11-18T05:21:39;19.13;;;8.65;;
64029;SDS011;50277;52.064;4.492;2023-11-18T05:24:04;16.33;;;8.95;;
64029;SDS011;50277;52.064;4.492;2023-11-18T05:26:30;10.68;;;8.38;;
64029;SDS011;50277;52.064;4.492;2023-11-18T05:28:55;16.67;;;7.95;;
64029;SDS011;50277;52.064;4.492;2023-11-18T05:31:21;27.05;;;10.25;;
64029;SDS011;50277;52.064;4.492;2023-11-18T05:33:46;14.95;;;8.05;;
64029;SDS011;50277;52.064;4.492;2023-11-18T05:36:16;15.32;;;8.90;;
64029;SDS011;50277;52.064;4.492;2023-11-18T05:38:44;14.85;;;7.90;;
64029;SDS011;50277;52.064;4.492;2023-11-18T05:41:09;25.20;;;8.75;;
64029;SDS011;50277;52.064;4.492;2023-11-18T05:43:41;18.23;;;8.90;;
64029;SDS011;50277;52.064;4.492;2023-11-18T05:46:09;15.18;;;8.63;;
64029;SDS011;50277;52.064;4.492;2023-11-18T05:48:49;19.40;;;8.65;;
64029;SDS011;50277;52.064;4.492;2023-11-18T05:51:18;19.30;;;8.35;;
64029;SDS011;50277;52.064;4.492;2023-11-18T05:53:47;20.15;;;8.30;;
64029;SDS011;50277;52.064;4.492;2023-11-18T05:56:13;22.98;;;8.43;;
64029;SDS011;50277;52.064;4.492;2023-11-18T05:58:38;19.30;;;8.85;;
64029;SDS011;50277;52.064;4.492;2023-11-18T06:01:04;17.20;;;7.88;;
64029;SDS011;50277;52.064;4.492;2023-11-18T06:03:31;17.67;;;7.85;;
64029;SDS011;50277;52.064;4.492;2023-11-18T06:05:57;12.02;;;7.72;;
64029;SDS011;50277;52.064;4.492;2023-11-18T06:08:22;16.35;;;7.80;;
64029;SDS011;50277;52.064;4.492;2023-11-18T06:10:48;17.40;;;7.82;;
64029;SDS011;50277;52.064;4.492;2023-11-18T06:13:14;15.20;;;7.70;;
64029;SDS011;50277;52.064;4.492;2023-11-18T06:15:41;21.08;;;7.82;;
64029;SDS011;50277;52.064;4.492;2023-11-18T06:18:08;16.50;;;7.78;;
64029;SDS011;50277;52.064;4.492;2023-11-18T06:20:36;20.45;;;8.05;;
64029;SDS011;50277;52.064;4.492;2023-11-18T06:23:03;17.73;;;7.70;;
64029;SDS011;50277;52.064;4.492;2023-11-18T06:25:28;18.00;;;8.23;;
64029;SDS011;50277;52.064;4.492;2023-11-18T06:27:56;14.77;;;7.68;;
64029;SDS011;50277;52.064;4.492;2023-11-18T06:30:23;16.17;;;7.50;;
64029;SDS011;50277;52.064;4.492;2023-11-18T06:32:48;20.77;;;8.13;;
64029;SDS011;50277;52.064;4.492;2023-11-18T06:35:13;12.80;;;7.10;;
64029;SDS011;50277;52.064;4.492;2023-11-18T06:37:41;15.25;;;7.43;;
64029;SDS011;50277;52.064;4.492;2023-11-18T06:40:07;13.05;;;7.13;;
64029;SDS011;50277;52.064;4.492;2023-11-18T06:42:41;19.60;;;7.57;;
64029;SDS011;50277;52.064;4.492;2023-11-18T06:45:13;22.65;;;7.80;;
64029;SDS011;50277;52.064;4.492;2023-11-18T06:47:40;20.15;;;7.35;;
64029;SDS011;50277;52.064;4.492;2023-11-18T06:50:08;17.25;;;6.70;;
64029;SDS011;50277;52.064;4.492;2023-11-18T06:52:36;17.42;;;7.93;;
64029;SDS011;50277;52.064;4.492;2023-11-18T06:55:02;21.08;;;7.45;;
64029;SDS011;50277;52.064;4.492;2023-11-18T06:57:28;15.73;;;7.43;;
64029;SDS011;50277;52.064;4.492;2023-11-18T06:59:53;16.25;;;7.20;;
64029;SDS011;50277;52.064;4.492;2023-11-18T07:02:19;18.50;;;7.28;;
64029;SDS011;50277;52.064;4.492;2023-11-18T07:04:45;15.95;;;8.45;;
64029;SDS011;50277;52.064;4.492;2023-11-18T07:07:11;14.55;;;7.03;;
64029;SDS011;50277;52.064;4.492;2023-11-18T07:09:37;18.73;;;7.65;;
64029;SDS011;50277;52.064;4.492;2023-11-18T07:12:02;17.35;;;7.78;;
64029;SDS011;50277;52.064;4.492;2023-11-18T07:14:31;19.95;;;7.20;;
64029;SDS011;50277;52.064;4.492;2023-11-18T07:16:56;19.85;;;7.38;;
64029;SDS011;50277;52.064;4.492;2023-11-18T07:19:21;15.25;;;7.07;;
64029;SDS011;50277;52.064;4.492;2023-11-18T07:21:47;18.58;;;7.53;;
64029;SDS011;50277;52.064;4.492;2023-11-18T07:24:14;17.65;;;7.35;;
64029;SDS011;50277;52.064;4.492;2023-11-18T07:26:39;21.55;;;7.88;;
64029;SDS011;50277;52.064;4.492;2023-11-18T07:29:04;16.70;;;6.70;;
64029;SDS011;50277;52.064;4.492;2023-11-18T07:31:32;12.93;;;6.47;;
64029;SDS011;50277;52.064;4.492;2023-11-18T07:33:58;21.30;;;7.53;;
64029;SDS011;50277;52.064;4.492;2023-11-18T07:36:23;25.70;;;7.32;;
64029;SDS011;50277;52.064;4.492;2023-11-18T07:38:48;18.17;;;6.85;;
64029;SDS011;50277;52.064;4.492;2023-11-18T07:41:17;12.13;;;6.30;;
64029;SDS011;50277;52.064;4.492;2023-11-18T07:43:52;20.98;;;6.72;;
64029;SDS011;50277;52.064;4.492;2023-11-18T07:46:20;16.90;;;6.85;;
64029;SDS011;50277;52.064;4.492;2023-11-18T07:48:52;20.17;;;6.63;;
64029;SDS011;50277;52.064;4.492;2023-11-18T07:51:17;13.98;;;6.70;;
64029;SDS011;50277;52.064;4.492;2023-11-18T07:53:46;20.60;;;6.43;;
64029;SDS011;50277;52.064;4.492;2023-11-18T07:56:12;12.30;;;6.43;;
64029;SDS011;50277;52.064;4.492;2023-11-18T07:58:38;17.95;;;6.18;;
64029;SDS011;50277;52.064;4.492;2023-11-18T08:01:03;15.48;;;6.57;;
64029;SDS011;50277;52.064;4.492;2023-11-18T08:03:32;13.48;;;6.07;;
64029;SDS011;50277;52.064;4.492;2023-11-18T08:05:58;16.52;;;6.70;;
64029;SDS011;50277;52.064;4.492;2023-11-18T08:08:23;19.05;;;6.00;;
64029;SDS011;50277;52.064;4.492;2023-11-18T08:10:49;15.48;;;6.32;;
64029;SDS011;50277;52.064;4.492;2023-11-18T08:13:15;16.38;;;6.03;;
64029;SDS011;50277;52.064;4.492;2023-11-18T08:15:41;20.67;;;5.35;;
64029;SDS011;50277;52.064;4.492;2023-11-18T08:18:10;20.58;;;6.32;;
64029;SDS011;50277;52.064;4.492;2023-11-18T08:20:35;14.93;;;6.07;;
64029;SDS011;50277;52.064;4.492;2023-11-18T08:23:01;11.88;;;5.50;;
64029;SDS011;50277;52.064;4.492;2023-11-18T08:25:26;12.32;;;6.10;;
64029;SDS011;50277;52.064;4.492;2023-11-18T08:27:51;17.58;;;5.70;;
64029;SDS011;50277;52.064;4.492;2023-11-18T08:30:17;18.63;;;6.65;;
64029;SDS011;50277;52.064;4.492;2023-11-18T08:32:43;18.42;;;6.38;;
64029;SDS011;50277;52.064;4.492;2023-11-18T08:35:09;15.20;;;5.35;;
64029;SDS011;50277;52.064;4.492;2023-11-18T08:37:36;11.55;;;5.78;;
64029;SDS011;50277;52.064;4.492;2023-11-18T08:40:05;15.02;;;5.50;;
64029;SDS011;50277;52.064;4.492;2023-11-18T08:42:31;15.27;;;5.63;;
64029;SDS011;50277;52.064;4.492;2023-11-18T08:44:58;20.88;;;5.93;;
64029;SDS011;50277;52.064;4.492;2023-11-18T08:47:25;13.23;;;5.80;;
64029;SDS011;50277;52.064;4.492;2023-11-18T08:49:50;16.00;;;5.68;;
64029;SDS011;50277;52.064;4.492;2023-11-18T08:52:15;14.13;;;6.00;;
64029;SDS011;50277;52.064;4.492;2023-11-18T08:54:42;15.30;;;6.18;;
64029;SDS011;50277;52.064;4.492;2023-11-18T08:57:28;14.65;;;6.07;;
64029;SDS011;50277;52.064;4.492;2023-11-18T09:00:13;15.05;;;5.70;;
64029;SDS011;50277;52.064;4.492;2023-11-18T09:03:01;19.77;;;6.80;;
64029;SDS011;50277;52.064;4.492;2023-11-18T09:05:27;15.45;;;6.25;;
64029;SDS011;50277;52.064;4.492;2023-11-18T09:07:57;18.35;;;6.28;;
64029;SDS011;50277;52.064;4.492;2023-11-18T09:10:23;17.55;;;6.43;;
64029;SDS011;50277;52.064;4.492;2023-11-18T09:12:49;14.52;;;6.50;;
64029;SDS011;50277;52.064;4.492;2023-11-18T09:15:14;17.45;;;6.00;;
64029;SDS011;50277;52.064;4.492;2023-11-18T09:17:47;18.67;;;5.97;;
64029;SDS011;50277;52.064;4.492;2023-11-18T09:45:23;16.35;;;5.32;;
64029;SDS011;50277;52.064;4.492;2023-11-18T09:47:51;19.48;;;6.05;;
64029;SDS011;50277;52.064;4.492;2023-11-18T09:50:18;14.18;;;5.10;;
64029;SDS011;50277;52.064;4.492;2023-11-18T09:52:50;13.73;;;5.15;;
64029;SDS011;50277;52.064;4.492;2023-11-18T09:55:29;17.98;;;5.15;;
64029;SDS011;50277;52.064;4.492;2023-11-18T09:58:04;11.98;;;5.03;;
64029;SDS011;50277;52.064;4.492;2023-11-18T10:00:33;14.65;;;4.75;;
64029;SDS011;50277;52.064;4.492;2023-11-18T10:03:06;14.65;;;4.80;;
64029;SDS011;50277;52.064;4.492;2023-11-18T10:05:33;17.63;;;4.45;;
64029;SDS011;50277;52.064;4.492;2023-11-18T10:08:01;10.93;;;4.35;;
64029;SDS011;50277;52.064;4.492;2023-11-18T10:10:30;11.02;;;4.47;;
64029;SDS011;50277;52.064;4.492;2023-11-18T10:13:01;12.27;;;4.32;;
64029;SDS011;50277;52.064;4.492;2023-11-18T10:15:29;14.98;;;4.55;;
64029;SDS011;50277;52.064;4.492;2023-11-18T10:17:56;8.50;;;4.75;;
64029;SDS011;50277;52.064;4.492;2023-11-18T10:23:09;11.15;;;4.18;;
64029;SDS011;50277;52.064;4.492;2023-11-18T10:25:51;14.20;;;3.70;;
64029;SDS011;50277;52.064;4.492;2023-11-18T10:31:01;11.90;;;3.95;;
64029;SDS011;50277;52.064;4.492;2023-11-18T10:33:32;10.48;;;3.97;;
64029;SDS011;50277;52.064;4.492;2023-11-18T10:36:01;11.65;;;3.58;;
64029;SDS011;50277;52.064;4.492;2023-11-18T10:38:28;11.73;;;4.15;;
64029;SDS011;50277;52.064;4.492;2023-11-18T10:41:01;11.35;;;4.00;;
64029;SDS011;50277;52.064;4.492;2023-11-18T10:43:27;11.15;;;3.83;;
64029;SDS011;50277;52.064;4.492;2023-11-18T10:46:08;13.10;;;3.80;;
64029;SDS011;50277;52.064;4.492;2023-11-18T10:48:47;12.23;;;3.50;;
64029;SDS011;50277;52.064;4.492;2023-11-18T10:51:17;8.90;;;3.97;;
64029;SDS011;50277;52.064;4.492;2023-11-18T10:53:44;10.98;;;3.83;;
64029;SDS011;50277;52.064;4.492;2023-11-18T10:56:26;10.25;;;3.80;;
64029;SDS011;50277;52.064;4.492;2023-11-18T10:58:53;8.70;;;3.45;;
64029;SDS011;50277;52.064;4.492;2023-11-18T11:03:56;7.10;;;3.55;;
64029;SDS011;50277;52.064;4.492;2023-11-18T11:06:23;10.25;;;3.95;;
64029;SDS011;50277;52.064;4.492;2023-11-18T11:08:55;9.40;;;3.90;;
64029;SDS011;50277;52.064;4.492;2023-11-18T11:11:24;11.40;;;4.20;;
64029;SDS011;50277;52.064;4.492;2023-11-18T11:13:53;10.25;;;3.95;;
64029;SDS011;50277;52.064;4.492;2023-11-18T11:16:22;8.65;;;3.90;;
64029;SDS011;50277;52.064;4.492;2023-11-18T11:18:53;8.18;;;5.03;;
64029;SDS011;50277;52.064;4.492;2023-11-18T11:21:21;12.13;;;3.97;;
64029;SDS011;50277;52.064;4.492;2023-11-18T11:23:53;8.77;;;3.92;;
64029;SDS011;50277;52.064;4.492;2023-11-18T11:26:28;9.98;;;4.30;;
64029;SDS011;50277;52.064;4.492;2023-11-18T11:29:20;9.02;;;3.63;;
64029;SDS011;50277;52.064;4.492;2023-11-18T11:34:37;9.60;;;3.67;;
64029;SDS011;50277;52.064;4.492;2023-11-18T11:37:07;9.05;;;3.15;;
64029;SDS011;50277;52.064;4.492;2023-11-18T11:39:34;5.93;;;3.50;;
64029;SDS011;50277;52.064;4.492;2023-11-18T11:42:01;9.80;;;3.60;;
64029;SDS011;50277;52.064;4.492;2023-11-18T11:44:27;5.53;;;3.05;;
64029;SDS011;50277;52.064;4.492;2023-11-18T11:46:56;6.55;;;3.08;;
64029;SDS011;50277;52.064;4.492;2023-11-18T11:49:25;7.15;;;3.20;;
64029;SDS011;50277;52.064;4.492;2023-11-18T11:54:21;4.00;;;2.80;;
64029;SDS011;50277;52.064;4.492;2023-11-18T11:56:49;9.43;;;3.38;;
64029;SDS011;50277;52.064;4.492;2023-11-18T11:59:35;5.28;;;3.03;;
64029;SDS011;50277;52.064;4.492;2023-11-18T12:02:21;6.03;;;3.22;;
64029;SDS011;50277;52.064;4.492;2023-11-18T12:04:51;9.88;;;3.65;;
64029;SDS011;50277;52.064;4.492;2023-11-18T12:07:22;7.82;;;3.47;;
64029;SDS011;50277;52.064;4.492;2023-11-18T12:09:58;7.60;;;3.47;;
64029;SDS011;50277;52.064;4.492;2023-11-18T12:12:26;6.40;;;3.05;;
64029;SDS011;50277;52.064;4.492;2023-11-18T12:14:56;5.30;;;2.78;;
64029;SDS011;50277;52.064;4.492;2023-11-18T12:17:23;6.03;;;3.30;;
64029;SDS011;50277;52.064;4.492;2023-11-18T12:19:53;7.18;;;2.90;;
64029;SDS011;50277;52.064;4.492;2023-11-18T12:22:23;6.72;;;3.28;;
64029;SDS011;50277;52.064;4.492;2023-11-18T12:30:04;5.53;;;2.40;;
64029;SDS011;50277;52.064;4.492;2023-11-18T12:44:15;4.45;;;2.53;;
64029;SDS011;50277;52.064;4.492;2023-11-18T12:46:50;2.80;;;2.58;;
64029;SDS011;50277;52.064;4.492;2023-11-18T12:49:26;4.07;;;2.85;;
64029;SDS011;50277;52.064;4.492;2023-11-18T12:51:53;3.90;;;3.10;;
64029;SDS011;50277;52.064;4.492;2023-11-18T12:54:24;2.63;;;2.42;;
64029;SDS011;50277;52.064;4.492;2023-11-18T12:56:52;3.25;;;2.70;;
64029;SDS011;50277;52.064;4.492;2023-11-18T12:59:18;5.35;;;3.00;;
64029;SDS011;50277;52.064;4.492;2023-11-18T13:01:52;2.95;;;2.72;;
64029;SDS011;50277;52.064;4.492;2023-11-18T13:04:23;4.30;;;2.50;;
64029;SDS011;50277;52.064;4.492;2023-11-18T13:06:49;2.55;;;2.35;;
64029;SDS011;50277;52.064;4.492;2023-11-18T13:09:16;2.83;;;2.53;;
64029;SDS011;50277;52.064;4.492;2023-11-18T13:11:51;3.33;;;3.03;;
64029;SDS011;50277;52.064;4.492;2023-11-18T13:14:24;2.83;;;2.60;;
64029;SDS011;50277;52.064;4.492;2023-11-18T13:16:51;2.58;;;2.38;;
64029;SDS011;50277;52.064;4.492;2023-11-18T13:19:27;2.90;;;2.60;;
64029;SDS011;50277;52.064;4.492;2023-11-18T13:21:59;4.22;;;2.80;;
64029;SDS011;50277;52.064;4.492;2023-11-18T13:24:33;4.00;;;2.42;;
64029;SDS011;50277;52.064;4.492;2023-11-18T13:27:01;4.65;;;2.40;;
64029;SDS011;50277;52.064;4.492;2023-11-18T13:29:30;3.00;;;2.63;;
64029;SDS011;50277;52.064;4.492;2023-11-18T13:31:56;2.92;;;2.60;;
64029;SDS011;50277;52.064;4.492;2023-11-18T13:34:23;2.58;;;2.38;;
64029;SDS011;50277;52.064;4.492;2023-11-18T13:36:48;2.63;;;2.42;;
64029;SDS011;50277;52.064;4.492;2023-11-18T13:39:20;4.03;;;2.15;;
64029;SDS011;50277;52.064;4.492;2023-11-18T13:41:49;2.42;;;2.00;;
64029;SDS011;50277;52.064;4.492;2023-11-18T13:44:31;2.67;;;2.47;;
64029;SDS011;50277;52.064;4.492;2023-11-18T13:46:59;2.40;;;2.20;;
64029;SDS011;50277;52.064;4.492;2023-11-18T13:49:27;2.53;;;2.08;;
64029;SDS011;50277;52.064;4.492;2023-11-18T13:51:53;2.53;;;2.33;;
64029;SDS011;50277;52.064;4.492;2023-11-18T13:54:18;2.63;;;2.10;;
64029;SDS011;50277;52.064;4.492;2023-11-18T13:56:43;2.58;;;2.00;;
64029;SDS011;50277;52.064;4.492;2023-11-18T13:59:09;2.40;;;2.20;;
64029;SDS011;50277;52.064;4.492;2023-11-18T14:01:34;2.30;;;2.10;;
64029;SDS011;50277;52.064;4.492;2023-11-18T14:04:02;2.38;;;2.03;;
64029;SDS011;50277;52.064;4.492;2023-11-18T14:06:29;2.75;;;1.90;;
64029;SDS011;50277;52.064;4.492;2023-11-18T14:08:55;1.95;;;1.85;;
64029;SDS011;50277;52.064;4.492;2023-11-18T14:11:20;2.88;;;2.33;;
64029;SDS011;50277;52.064;4.492;2023-11-18T14:13:46;6.22;;;3.70;;
64029;SDS011;50277;52.064;4.492;2023-11-18T14:16:12;2.70;;;2.50;;
64029;SDS011;50277;52.064;4.492;2023-11-18T14:18:37;2.20;;;2.00;;
64029;SDS011;50277;52.064;4.492;2023-11-18T14:21:06;2.97;;;2.00;;
64029;SDS011;50277;52.064;4.492;2023-11-18T14:23:31;1.83;;;1.73;;
64029;SDS011;50277;52.064;4.492;2023-11-18T14:25:57;3.83;;;2.13;;
64029;SDS011;50277;52.064;4.492;2023-11-18T14:28:23;1.88;;;1.77;;
64029;SDS011;50277;52.064;4.492;2023-11-18T14:30:51;1.95;;;1.85;;
64029;SDS011;50277;52.064;4.492;2023-11-18T14:33:17;1.98;;;1.83;;
64029;SDS011;50277;52.064;4.492;2023-11-18T14:35:44;2.65;;;1.80;;
64029;SDS011;50277;52.064;4.492;2023-11-18T14:38:10;2.10;;;1.90;;
64029;SDS011;50277;52.064;4.492;2023-11-18T14:40:37;2.20;;;2.00;;
64029;SDS011;50277;52.064;4.492;2023-11-18T14:43:04;2.22;;;2.10;;
64029;SDS011;50277;52.064;4.492;2023-11-18T14:45:30;1.85;;;1.75;;
64029;SDS011;50277;52.064;4.492;2023-11-18T14:47:55;2.13;;;2.03;;
64029;SDS011;50277;52.064;4.492;2023-11-18T14:50:21;2.33;;;2.13;;
64029;SDS011;50277;52.064;4.492;2023-11-18T14:52:49;2.33;;;2.13;;
64029;SDS011;50277;52.064;4.492;2023-11-18T14:55:16;2.30;;;2.20;;
64029;SDS011;50277;52.064;4.492;2023-11-18T14:57:43;2.20;;;2.10;;
64029;SDS011;50277;52.064;4.492;2023-11-18T15:00:09;2.47;;;2.28;;
64029;SDS011;50277;52.064;4.492;2023-11-18T15:02:45;2.83;;;2.63;;
64029;SDS011;50277;52.064;4.492;2023-11-18T15:05:11;3.03;;;2.83;;
64029;SDS011;50277;52.064;4.492;2023-11-18T15:07:37;2.92;;;2.72;;
64029;SDS011;50277;52.064;4.492;2023-11-18T15:10:03;2.78;;;2.58;;
64029;SDS011;50277;52.064;4.492;2023-11-18T15:12:28;3.25;;;3.03;;
64029;SDS011;50277;52.064;4.492;2023-11-18T15:14:54;3.13;;;2.92;;
64029;SDS011;50277;52.064;4.492;2023-11-18T15:17:20;2.90;;;2.70;;
64029;SDS011;50277;52.064;4.492;2023-11-18T15:19:47;3.65;;;3.45;;
64029;SDS011;50277;52.064;4.492;2023-11-18T15:22:12;3.72;;;3.47;;
64029;SDS011;50277;52.064;4.492;2023-11-18T15:24:38;3.53;;;3.33;;
64029;SDS011;50277;52.064;4.492;2023-11-18T15:27:03;3.58;;;3.33;;
64029;SDS011;50277;52.064;4.492;2023-11-18T15:29:29;2.90;;;2.70;;
64029;SDS011;50277;52.064;4.492;2023-11-18T15:32:02;3.33;;;3.03;;
64029;SDS011;50277;52.064;4.492;2023-11-18T15:34:28;2.90;;;2.70;;
64029;SDS011;50277;52.064;4.492;2023-11-18T15:36:53;3.20;;;3.00;;